createdAt,value
2023-03-26T00:00:11.864Z,4058.00
2023-03-26T00:04:13.045Z,4036.00
2023-03-26T00:08:13.994Z,3504.00
2023-03-26T00:12:14.938Z,3719.00
2023-03-26T00:16:16.092Z,3755.00
2023-03-26T00:20:17.085Z,4483.00
2023-03-26T00:24:18.272Z,4463.00
2023-03-26T00:28:19.395Z,4163.00
2023-03-26T00:32:20.508Z,4413.00
2023-03-26T00:36:21.707Z,5281.00
2023-03-26T00:40:22.781Z,5881.00
2023-03-26T00:44:24.016Z,5564.00
2023-03-26T00:48:34.490Z,5721.00
2023-03-26T00:52:27.345Z,5626.00
2023-03-26T00:56:27.328Z,5486.00
2023-03-26T01:00:28.333Z,4581.00
2023-03-26T01:04:29.461Z,3880.00
2023-03-26T01:08:30.520Z,3704.00
2023-03-26T01:12:31.556Z,3428.00
2023-03-26T01:16:32.717Z,3990.00
2023-03-26T01:20:33.855Z,4408.00
2023-03-26T01:24:35.121Z,6225.00
2023-03-26T01:28:36.451Z,6151.00
2023-03-26T01:32:37.639Z,4885.00
2023-03-26T01:36:38.723Z,5560.00
2023-03-26T01:40:39.803Z,5841.00
2023-03-26T01:44:40.941Z,6760.00
2023-03-26T01:48:42.166Z,7226.00
2023-03-26T01:52:43.409Z,6961.00
2023-03-26T01:56:44.576Z,6155.00
2023-03-26T02:00:45.725Z,5536.00
2023-03-26T02:04:46.872Z,5656.00
2023-03-26T02:08:48.027Z,5795.00
2023-03-26T02:12:49.168Z,5648.00
2023-03-26T02:16:50.345Z,6128.00
2023-03-26T02:20:51.556Z,5388.00
2023-03-26T02:24:52.688Z,4694.00
2023-03-26T02:28:53.925Z,3872.00
2023-03-26T02:32:55.234Z,3260.00
2023-03-26T02:36:56.498Z,3914.00
2023-03-26T02:40:57.714Z,4088.00
2023-03-26T02:44:58.882Z,3819.00
2023-03-26T02:49:00.197Z,3954.00
2023-03-26T02:53:01.417Z,4430.00
2023-03-26T02:57:02.717Z,4407.00
2023-03-26T03:01:03.959Z,4200.00
2023-03-26T03:05:05.219Z,3977.00
2023-03-26T03:09:06.343Z,3536.00
2023-03-26T03:13:07.586Z,3950.00
2023-03-26T03:17:08.963Z,3552.00
2023-03-26T03:21:10.005Z,4321.00
2023-03-26T03:25:11.115Z,5251.00
2023-03-26T03:29:12.159Z,4510.00
2023-03-26T03:33:13.171Z,4577.00
2023-03-26T03:37:14.214Z,4018.00
2023-03-26T03:41:15.241Z,3624.00
2023-03-26T03:45:16.286Z,5423.00
2023-03-26T03:49:17.453Z,5085.00
2023-03-26T03:53:18.592Z,5375.00
2023-03-26T03:57:20.179Z,4371.00
2023-03-26T04:01:20.840Z,4209.00
2023-03-26T04:05:21.915Z,2926.00
2023-03-26T04:09:23.174Z,2397.00
2023-03-26T04:13:23.978Z,2006.00
2023-03-26T04:17:25.043Z,1831.00
2023-03-26T04:21:25.994Z,1574.00
2023-03-26T04:25:27.030Z,3560.00
2023-03-26T04:29:28.361Z,4270.00
2023-03-26T04:33:29.709Z,3653.00
2023-03-26T04:37:30.850Z,5181.00
2023-03-26T04:41:32.041Z,5860.00
2023-03-26T04:45:33.210Z,4948.00
2023-03-26T04:49:34.347Z,4716.00
2023-03-26T04:53:35.538Z,5439.00
2023-03-26T04:57:36.846Z,6651.00
2023-03-26T05:01:38.229Z,6823.00
2023-03-26T05:05:39.238Z,5490.00
2023-03-26T05:09:40.326Z,4121.00
2023-03-26T05:13:41.382Z,3544.00
2023-03-26T05:17:42.429Z,2875.00
2023-03-26T05:21:43.287Z,1785.00
2023-03-26T05:25:44.250Z,1021.00
2023-03-26T05:29:45.253Z,3911.00
2023-03-26T05:33:46.371Z,2655.00
2023-03-26T05:37:47.362Z,2831.00
2023-03-26T05:41:48.458Z,5165.00
2023-03-26T05:45:49.639Z,6129.00
2023-03-26T05:49:50.860Z,6501.00
2023-03-26T05:53:51.974Z,6929.00
2023-03-26T05:57:53.171Z,6810.00
2023-03-26T06:01:54.368Z,7146.00
2023-03-26T06:05:55.651Z,7542.00
2023-03-26T06:09:57.182Z,4332.00
2023-03-26T06:13:58.172Z,3961.00
2023-03-26T06:17:59.272Z,5192.00
2023-03-26T06:22:00.264Z,5094.00
2023-03-26T06:26:01.478Z,4049.00
2023-03-26T06:30:02.685Z,3808.00
2023-03-26T06:34:03.797Z,2418.00
2023-03-26T06:38:04.890Z,1843.00
2023-03-26T06:42:05.833Z,1051.00
2023-03-26T06:46:06.799Z,1327.00
2023-03-26T06:50:07.709Z,1022.00
2023-03-26T06:54:08.668Z,678.00
2023-03-26T06:58:09.570Z,528.00
2023-03-26T07:02:10.700Z,523.00
2023-03-26T07:06:11.358Z,643.00
2023-03-26T07:10:12.245Z,2267.00
2023-03-26T07:14:13.178Z,3397.00
2023-03-26T07:18:14.092Z,3687.00
2023-03-26T07:22:14.951Z,4040.00
2023-03-26T07:26:15.773Z,4364.00
2023-03-26T07:30:16.587Z,4863.00
2023-03-26T07:34:17.380Z,4557.00
2023-03-26T07:38:18.503Z,4386.00
2023-03-26T07:42:19.496Z,4344.00
2023-03-26T07:46:20.330Z,4933.00
2023-03-26T07:50:21.110Z,5296.00
2023-03-26T07:54:21.870Z,5086.00
2023-03-26T07:58:22.640Z,4803.00
2023-03-26T08:02:23.422Z,4863.00
2023-03-26T08:06:24.209Z,5105.00
2023-03-26T08:10:24.926Z,4920.00
2023-03-26T08:14:25.679Z,4799.00
2023-03-26T08:18:26.467Z,5042.00
2023-03-26T08:22:27.216Z,5078.00
2023-03-26T08:26:27.969Z,5152.00
2023-03-26T08:30:28.743Z,5444.00
2023-03-26T08:34:29.508Z,5135.00
2023-03-26T08:38:30.297Z,5068.00
2023-03-26T10:18:50.765Z,5045.00
2023-03-26T10:22:51.457Z,5043.00
2023-03-26T10:27:08.958Z,4979.00
2023-03-26T11:55:09.598Z,1017.00
2023-03-26T11:59:10.314Z,1951.00
2023-03-26T12:03:11.096Z,1533.00
2023-03-26T12:07:11.822Z,1439.00
2023-03-26T12:11:12.533Z,1630.00
2023-03-26T12:15:13.256Z,2096.00
2023-03-26T12:19:13.931Z,2640.00
2023-03-26T12:23:14.770Z,2475.00
2023-03-26T12:27:15.725Z,2346.00
2023-03-26T12:31:16.506Z,2692.00
2023-03-26T12:35:17.227Z,2917.00
2023-03-26T12:40:07.726Z,2991.00
2023-03-26T12:44:49.558Z,2116.00
2023-03-26T12:47:58.716Z,2279.00
2023-03-26T12:51:21.298Z,1668.00
2023-03-26T12:55:21.090Z,1841.00
2023-03-26T12:59:21.882Z,2215.00
2023-03-26T13:03:22.794Z,2246.00
2023-03-26T13:07:23.497Z,2127.00
2023-03-26T13:11:24.296Z,2002.00
2023-03-26T13:15:25.120Z,2539.00
2023-03-26T13:19:25.933Z,2523.00
2023-03-26T13:23:26.759Z,2550.00
2023-03-26T13:27:27.617Z,2282.00
2023-03-26T13:31:28.566Z,2482.00
2023-03-26T13:35:29.478Z,1859.00
2023-03-26T13:39:30.454Z,2094.00
2023-03-26T13:43:31.407Z,1472.00
2023-03-26T13:47:32.462Z,1325.00
2023-03-26T13:51:33.470Z,1644.00
2023-03-26T13:55:34.519Z,2482.00
2023-03-26T13:59:36.307Z,1716.00
2023-03-26T14:03:36.236Z,1206.00
2023-03-26T14:07:37.027Z,1530.00
2023-03-26T14:11:37.886Z,2052.00
2023-03-26T14:15:38.584Z,1271.00
2023-03-26T14:19:39.301Z,1871.00
2023-03-26T14:23:40.299Z,2697.00
2023-03-26T14:27:40.878Z,3869.00
2023-03-26T14:31:41.902Z,2224.00
2023-03-26T14:35:42.679Z,2077.00
2023-03-26T14:39:43.455Z,1498.00
2023-03-26T14:43:44.272Z,2061.00
2023-03-26T14:47:45.190Z,1354.00
2023-03-26T14:51:45.852Z,1044.00
2023-03-26T14:55:46.648Z,928.00
2023-03-26T14:59:47.476Z,1022.00
2023-03-26T15:03:48.310Z,598.00
2023-03-26T15:07:49.132Z,561.00
2023-03-26T15:11:49.950Z,614.00
2023-03-26T15:15:54.093Z,666.00
2023-03-26T15:19:51.609Z,610.00
2023-03-26T15:23:52.438Z,532.00
2023-03-26T15:27:53.285Z,516.00
2023-03-26T15:31:54.327Z,500.00
2023-03-26T15:35:57.428Z,517.00
2023-03-26T15:39:59.459Z,568.00
2023-03-26T15:44:22.604Z,526.00
2023-03-26T15:47:58.898Z,661.00
2023-03-26T15:51:58.789Z,616.00
2023-03-26T15:55:59.717Z,631.00
2023-03-26T16:00:01.044Z,796.00
2023-03-26T16:04:02.302Z,551.00
2023-03-26T16:08:02.651Z,656.00
2023-03-26T16:12:03.677Z,1190.00
2023-03-26T16:16:04.754Z,650.00
2023-03-26T16:20:05.629Z,699.00
2023-03-26T16:24:06.423Z,796.00
2023-03-26T16:28:07.324Z,1302.00
2023-03-26T16:32:08.267Z,2179.00
2023-03-26T16:36:09.129Z,2621.00
2023-03-26T16:40:09.980Z,2394.00
2023-03-26T16:44:11.316Z,2624.00
2023-03-26T16:48:11.670Z,2702.00
2023-03-26T16:52:12.501Z,2588.00
2023-03-26T16:56:13.366Z,2063.00
2023-03-26T17:00:14.154Z,2092.00
2023-03-26T17:04:14.965Z,2438.00
2023-03-26T17:08:15.824Z,3055.00
2023-03-26T17:12:16.560Z,3566.00
2023-03-26T17:16:17.386Z,4113.00
2023-03-26T17:20:18.235Z,4330.00
2023-03-26T17:24:19.203Z,4928.00
2023-03-26T17:28:20.286Z,5158.00
2023-03-26T17:32:21.443Z,5621.00
2023-03-26T17:36:22.350Z,5648.00
2023-03-26T17:40:23.328Z,4152.00
2023-03-26T17:44:24.201Z,4139.00
2023-03-26T17:48:25.061Z,4164.00
2023-03-26T17:52:25.942Z,4673.00
2023-03-26T17:56:26.788Z,5184.00
2023-03-26T18:00:27.748Z,5816.00
2023-03-26T18:04:28.724Z,6184.00
2023-03-26T18:08:29.706Z,6079.00
2023-03-26T18:12:30.805Z,6357.00
2023-03-26T18:16:31.940Z,6097.00
2023-03-26T18:20:32.756Z,5772.00
2023-03-26T18:24:33.704Z,5537.00
2023-03-26T18:28:34.854Z,5044.00
2023-03-26T18:32:35.657Z,4770.00
2023-03-26T18:36:36.602Z,4856.00
2023-03-26T18:40:37.534Z,5082.00
2023-03-26T18:44:38.443Z,5503.00
2023-03-26T18:48:39.393Z,5552.00
2023-03-26T18:52:40.332Z,5596.00
2023-03-26T18:56:41.263Z,5735.00
2023-03-26T19:00:42.340Z,5222.00
2023-03-26T19:04:45.428Z,5141.00
2023-03-26T19:08:44.316Z,5090.00
2023-03-26T19:12:45.149Z,4952.00
2023-03-26T19:16:46.152Z,2735.00
2023-03-26T19:20:47.013Z,2137.00
2023-03-26T19:24:47.944Z,1111.00
2023-03-26T19:28:48.840Z,1263.00
2023-03-26T19:32:49.800Z,752.00
2023-03-26T19:36:50.664Z,911.00
2023-03-26T19:40:51.523Z,3311.00
2023-03-26T19:44:52.412Z,3267.00
2023-03-26T19:48:53.380Z,3163.00
2023-03-26T19:52:58.548Z,3073.00
2023-03-26T19:56:56.223Z,3178.00
2023-03-26T20:00:56.417Z,3215.00
2023-03-26T20:04:57.003Z,3483.00
2023-03-26T20:08:57.929Z,4074.00
2023-03-26T20:12:58.853Z,3220.00
2023-03-26T20:16:59.871Z,3731.00
2023-03-26T20:21:00.753Z,4135.00
2023-03-26T20:25:01.746Z,3785.00
2023-03-26T20:29:04.016Z,3945.00
2023-03-26T20:33:12.648Z,4280.00
2023-03-26T20:37:05.551Z,4412.00
2023-03-26T20:41:05.392Z,4746.00
2023-03-26T20:45:06.284Z,5138.00
2023-03-26T20:49:07.227Z,5259.00
2023-03-26T20:53:08.324Z,4942.00
2023-03-26T20:57:09.386Z,4497.00
2023-03-26T21:01:10.371Z,3674.00
2023-03-26T21:05:11.875Z,3477.00
2023-03-26T21:09:12.429Z,2962.00
2023-03-26T21:13:13.370Z,3532.00
2023-03-26T21:17:14.381Z,3412.00
2023-03-26T21:21:21.203Z,4190.00
2023-03-26T21:25:17.406Z,4228.00
2023-03-26T21:29:17.236Z,4767.00
2023-03-26T21:33:18.093Z,4234.00
2023-03-26T21:37:18.998Z,4319.00
2023-03-26T21:41:19.946Z,4641.00
2023-03-26T21:45:20.909Z,4638.00
2023-03-26T21:49:21.914Z,3355.00
2023-03-26T21:53:22.905Z,3559.00
2023-03-26T21:57:23.900Z,3306.00
2023-03-26T22:01:24.938Z,3483.00
2023-03-26T22:05:25.922Z,3194.00
2023-03-26T22:09:35.712Z,3026.00
2023-03-26T22:13:28.700Z,3053.00
2023-03-26T22:17:28.903Z,2308.00
2023-03-26T22:21:29.502Z,2851.00
2023-03-26T22:25:30.576Z,2240.00
2023-03-26T22:29:31.531Z,632.00
2023-03-26T22:33:32.470Z,1070.00
2023-03-26T22:37:33.365Z,1318.00
2023-03-26T22:41:34.889Z,602.00
2023-03-26T22:45:35.151Z,2202.00
2023-03-26T22:49:36.027Z,2528.00
2023-03-26T22:53:36.903Z,3177.00
2023-03-26T22:57:37.766Z,3130.00
2023-03-26T23:01:38.723Z,3115.00
2023-03-26T23:05:39.543Z,3410.00
2023-03-26T23:09:40.429Z,3976.00
2023-03-26T23:13:41.296Z,3593.00
2023-03-26T23:17:42.217Z,3734.00
2023-03-26T23:21:43.084Z,3081.00
2023-03-26T23:25:43.971Z,3316.00
2023-03-26T23:29:44.863Z,4007.00
2023-03-26T23:33:45.941Z,3958.00
2023-03-26T23:37:46.661Z,3594.00
2023-03-26T23:41:47.575Z,3512.00
2023-03-26T23:45:48.491Z,3608.00
2023-03-26T23:49:49.412Z,3537.00
2023-03-26T23:53:50.507Z,3909.00
2023-03-26T23:57:51.682Z,2836.00
